createdAt,value
2022-10-23T00:01:54.698Z,69.87
2022-10-23T00:04:25.645Z,69.73
2022-10-23T00:06:55.196Z,70.03
2022-10-23T00:09:26.802Z,70.55
2022-10-23T00:11:56.152Z,69.79
2022-10-23T00:14:26.956Z,70.03
2022-10-23T00:16:55.903Z,69.88
2022-10-23T00:19:25.230Z,70.04
2022-10-23T00:21:54.447Z,70.12
2022-10-23T00:24:24.860Z,69.89
2022-10-23T00:26:53.911Z,70.17
2022-10-23T00:29:25.047Z,69.62
2022-10-23T00:31:54.141Z,69.79
2022-10-23T00:34:23.184Z,69.95
2022-10-23T00:36:52.330Z,70.14
2022-10-23T00:39:21.542Z,71.25
2022-10-23T00:41:52.184Z,70.74
2022-10-23T00:44:57.663Z,70.93
2022-10-23T00:47:26.659Z,69.97
2022-10-23T00:49:55.509Z,69.86
2022-10-23T00:52:24.637Z,69.74
2022-10-23T00:54:53.417Z,69.26
2022-10-23T00:57:24.590Z,69.74
2022-10-23T00:59:53.353Z,69.39
2022-10-23T01:02:22.788Z,69.27
2022-10-23T01:04:51.771Z,69.25
2022-10-23T01:07:29.489Z,69.05
2022-10-23T01:10:06.198Z,69.14
2022-10-23T01:12:46.201Z,68.99
2022-10-23T01:15:21.615Z,69.11
2022-10-23T01:17:57.398Z,68.81
2022-10-23T01:20:40.021Z,69.01
2022-10-23T01:23:15.494Z,69.10
2022-10-23T01:26:04.436Z,68.81
2022-10-23T01:28:38.470Z,68.86
2022-10-23T01:31:11.226Z,68.57
2022-10-23T01:33:43.302Z,68.86
2022-10-23T01:36:16.302Z,68.84
2022-10-23T01:38:49.817Z,69.75
2022-10-23T01:41:22.932Z,69.13
2022-10-23T01:43:58.450Z,69.14
2022-10-23T01:46:29.252Z,69.24
2022-10-23T01:48:59.441Z,68.74
2022-10-23T01:51:30.907Z,68.68
2022-10-23T01:54:02.810Z,68.59
2022-10-23T01:56:35.361Z,68.42
2022-10-23T01:59:06.964Z,68.60
2022-10-23T02:01:39.154Z,69.17
2022-10-23T02:04:14.372Z,68.52
2022-10-23T02:06:43.451Z,68.48
2022-10-23T02:09:12.519Z,68.39
2022-10-23T02:11:47.908Z,68.37
2022-10-23T02:14:25.303Z,68.30
2022-10-23T02:16:56.614Z,68.41
2022-10-23T02:19:33.275Z,68.16
2022-10-23T02:22:08.520Z,68.29
2022-10-23T02:24:41.269Z,68.13
2022-10-23T02:27:13.834Z,67.97
2022-10-23T02:29:48.767Z,68.28
2022-10-23T02:32:19.765Z,67.99
2022-10-23T02:34:48.949Z,68.08
2022-10-23T02:37:18.624Z,67.89
2022-10-23T02:39:48.845Z,67.98
2022-10-23T02:42:24.753Z,67.92
2022-10-23T02:45:05.631Z,68.17
2022-10-23T02:47:48.825Z,68.39
2022-10-23T02:50:26.249Z,68.24
2022-10-23T02:53:04.406Z,68.32
2022-10-23T02:55:45.102Z,68.34
2022-10-23T02:58:21.126Z,68.14
2022-10-23T03:00:56.466Z,68.20
2022-10-23T03:03:31.946Z,68.19
2022-10-23T03:06:01.070Z,68.12
2022-10-23T03:08:30.148Z,68.20
2022-10-23T03:10:59.260Z,67.81
2022-10-23T03:13:28.051Z,68.09
2022-10-23T03:15:58.375Z,68.03
2022-10-23T03:18:27.419Z,68.21
2022-10-23T03:20:56.249Z,68.34
2022-10-23T03:23:25.355Z,68.05
2022-10-23T03:25:56.603Z,67.94
2022-10-23T03:28:25.645Z,67.82
2022-10-23T03:30:54.413Z,67.87
2022-10-23T03:33:24.864Z,67.80
2022-10-23T03:35:54.029Z,67.90
2022-10-23T03:38:23.333Z,67.87
2022-10-23T03:40:52.701Z,67.62
2022-10-23T03:43:22.020Z,67.70
2022-10-23T03:45:51.241Z,67.54
2022-10-23T03:48:20.296Z,67.32
2022-10-23T03:50:50.847Z,67.31
2022-10-23T03:53:19.733Z,67.17
2022-10-23T03:55:48.602Z,67.57
2022-10-23T03:58:17.421Z,67.53
2022-10-23T04:00:46.489Z,67.57
2022-10-23T04:03:15.327Z,67.35
2022-10-23T04:05:44.980Z,67.38
2022-10-23T04:08:20.092Z,67.67
2022-10-23T04:10:49.515Z,67.53
2022-10-23T04:13:18.355Z,67.74
2022-10-23T04:15:51.135Z,67.86
2022-10-23T04:18:20.065Z,67.73
2022-10-23T04:20:50.214Z,67.36
2022-10-23T04:23:20.839Z,67.59
2022-10-23T04:25:49.743Z,67.58
2022-10-23T04:33:54.685Z,67.77
2022-10-23T04:37:00.450Z,67.74
2022-10-23T04:40:15.036Z,68.22
2022-10-23T04:43:21.339Z,67.74
2022-10-23T04:48:50.242Z,67.94
2022-10-23T04:51:45.502Z,68.19
2022-10-23T04:54:33.116Z,68.18
2022-10-23T04:57:18.496Z,67.91
2022-10-23T05:00:16.345Z,67.94
2022-10-23T05:08:33.744Z,67.91
2022-10-23T05:11:13.839Z,67.91
2022-10-23T05:13:54.314Z,68.08
2022-10-23T05:16:53.523Z,68.49
2022-10-23T05:19:35.607Z,68.18
2022-10-23T05:22:37.768Z,68.70
2022-10-23T05:25:31.913Z,68.43
2022-10-23T05:28:33.857Z,68.51
2022-10-23T05:31:23.351Z,69.37
2022-10-23T05:37:03.275Z,68.82
2022-10-23T05:39:47.995Z,68.17
2022-10-23T05:42:33.839Z,68.01
2022-10-23T05:45:23.340Z,68.47
2022-10-23T05:48:33.409Z,68.61
2022-10-23T05:51:43.325Z,68.41
2022-10-23T05:54:31.607Z,68.57
2022-10-23T05:57:30.648Z,68.40
2022-10-23T06:00:35.769Z,68.48
2022-10-23T06:03:31.538Z,68.26
2022-10-23T06:06:22.522Z,68.42
2022-10-23T06:09:06.929Z,68.28
2022-10-23T06:17:19.816Z,68.24
2022-10-23T06:19:48.400Z,68.52
2022-10-23T06:24:53.225Z,68.18
2022-10-23T06:27:25.471Z,68.18
2022-10-23T06:30:00.997Z,68.04
2022-10-23T06:32:36.293Z,68.85
2022-10-23T06:35:10.988Z,68.43
2022-10-23T06:37:50.214Z,68.41
2022-10-23T06:40:34.534Z,68.63
2022-10-23T06:43:06.014Z,68.18
2022-10-23T06:45:36.485Z,67.82
2022-10-23T06:48:09.154Z,67.76
2022-10-23T06:50:41.463Z,67.56
2022-10-23T06:53:12.466Z,67.87
2022-10-23T06:55:44.240Z,67.49
2022-10-23T06:58:12.259Z,67.36
2022-10-23T07:00:40.843Z,67.35
2022-10-23T07:03:10.907Z,67.61
2022-10-23T07:05:47.784Z,67.56
2022-10-23T07:08:27.751Z,67.78
2022-10-23T07:10:58.185Z,67.17
2022-10-23T07:13:29.460Z,67.10
2022-10-23T07:16:00.599Z,67.66
2022-10-23T07:21:07.477Z,66.93
2022-10-23T07:23:37.499Z,66.82
2022-10-23T07:26:11.815Z,66.51
2022-10-23T07:28:44.138Z,66.19
2022-10-23T07:31:13.446Z,66.33
2022-10-23T07:33:41.843Z,66.24
2022-10-23T07:36:14.493Z,66.17
2022-10-23T07:38:48.259Z,66.51
2022-10-23T07:41:16.804Z,66.17
2022-10-23T07:43:55.194Z,66.33
2022-10-23T07:46:30.894Z,66.04
2022-10-23T07:49:16.746Z,65.80
2022-10-23T07:51:51.636Z,65.84
2022-10-23T07:54:27.722Z,65.45
2022-10-23T08:02:48.499Z,65.60
2022-10-23T08:05:26.656Z,65.52
2022-10-23T08:08:03.812Z,65.43
2022-10-23T08:10:50.775Z,65.66
2022-10-23T08:13:29.360Z,65.64
2022-10-23T08:16:09.483Z,65.37
2022-10-23T08:18:48.288Z,65.57
2022-10-23T08:21:41.432Z,65.15
2022-10-23T08:24:26.723Z,65.11
2022-10-23T08:27:11.273Z,64.82
2022-10-23T08:29:43.603Z,64.71
2022-10-23T08:32:24.268Z,64.42
2022-10-23T08:48:17.872Z,62.58
2022-10-23T08:50:51.145Z,62.05
2022-10-23T08:53:32.287Z,62.00
2022-10-23T08:56:04.068Z,61.58
2022-10-23T08:58:40.505Z,61.03
2022-10-23T09:01:33.977Z,60.54
2022-10-23T09:04:04.470Z,59.96
2022-10-23T09:06:38.094Z,59.30
2022-10-23T09:09:36.210Z,59.01
2022-10-23T09:27:38.825Z,57.17
2022-10-23T10:51:09.652Z,41.69
2022-10-23T10:53:50.386Z,40.85
2022-10-23T10:56:21.630Z,39.90
2022-10-23T10:58:53.800Z,39.36
2022-10-23T11:01:26.628Z,41.64
2022-10-23T11:38:59.090Z,33.78
2022-10-23T11:41:29.529Z,31.72
2022-10-23T11:44:01.672Z,32.70
2022-10-23T11:46:35.336Z,33.80
2022-10-23T11:49:06.242Z,33.75
2022-10-23T11:51:39.481Z,34.24
2022-10-23T11:54:27.193Z,31.42
2022-10-23T11:57:11.620Z,30.93
2022-10-23T11:59:52.592Z,30.99
2022-10-23T12:02:31.835Z,34.17
2022-10-23T12:05:03.851Z,34.17
2022-10-23T12:07:35.392Z,34.13
2022-10-23T12:10:07.929Z,34.73
2022-10-23T12:12:40.781Z,35.92
2022-10-23T12:15:19.756Z,35.62
2022-10-23T12:17:49.290Z,36.42
2022-10-23T12:20:26.784Z,37.03
2022-10-23T12:23:16.728Z,37.52
2022-10-23T12:26:00.245Z,38.31
2022-10-23T12:28:37.299Z,38.47
2022-10-23T12:31:21.546Z,39.20
2022-10-23T12:34:00.604Z,40.02
2022-10-23T12:36:45.294Z,40.27
2022-10-23T12:39:27.086Z,40.94
2022-10-23T12:41:56.627Z,41.17
2022-10-23T12:44:25.299Z,41.52
2022-10-23T12:46:57.379Z,42.20
2022-10-23T12:49:26.507Z,42.39
2022-10-23T12:51:58.248Z,43.19
2022-10-23T12:54:25.926Z,43.35
2022-10-23T12:56:54.266Z,43.07
2022-10-23T12:59:27.271Z,43.50
2022-10-23T13:01:56.088Z,43.36
2022-10-23T13:04:28.929Z,43.98
2022-10-23T13:06:58.174Z,44.11
2022-10-23T13:09:32.343Z,44.41
2022-10-23T13:12:04.273Z,44.92
2022-10-23T13:14:44.571Z,44.45
2022-10-23T13:17:17.629Z,44.36
2022-10-23T13:19:49.226Z,44.53
2022-10-23T13:22:21.714Z,44.88
2022-10-23T13:24:50.470Z,45.09
2022-10-23T13:27:36.029Z,45.22
2022-10-23T13:30:09.997Z,45.25
2022-10-23T13:32:41.537Z,45.12
2022-10-23T13:35:25.617Z,45.40
2022-10-23T13:37:56.188Z,45.99
2022-10-23T13:40:27.215Z,46.32
2022-10-23T13:42:58.613Z,46.23
2022-10-23T13:45:34.145Z,46.87
2022-10-23T13:48:03.704Z,46.73
2022-10-23T13:50:38.654Z,46.38
2022-10-23T13:53:08.811Z,46.86
2022-10-23T13:55:41.093Z,46.99
2022-10-23T13:58:11.591Z,47.08
2022-10-23T14:00:44.946Z,46.88
2022-10-23T14:03:16.472Z,46.89
2022-10-23T14:05:47.602Z,47.32
2022-10-23T14:08:16.703Z,47.32
2022-10-23T14:10:47.654Z,47.85
2022-10-23T14:13:17.133Z,47.91
2022-10-23T14:15:55.276Z,48.45
2022-10-23T14:18:25.027Z,48.45
2022-10-23T14:20:54.573Z,48.75
2022-10-23T14:23:24.434Z,49.08
2022-10-23T14:25:59.761Z,49.66
2022-10-23T14:28:28.579Z,49.34
2022-10-23T14:30:59.245Z,49.17
2022-10-23T14:33:30.571Z,49.63
2022-10-23T14:35:59.873Z,49.62
2022-10-23T14:38:32.382Z,50.14
2022-10-23T14:41:01.540Z,49.89
2022-10-23T14:43:33.781Z,50.42
2022-10-23T14:46:13.450Z,50.66
2022-10-23T14:48:47.174Z,50.90
2022-10-23T14:51:24.840Z,50.85
2022-10-23T14:54:03.550Z,51.25
2022-10-23T14:56:44.167Z,51.63
2022-10-23T14:59:16.165Z,51.77
2022-10-23T15:04:26.149Z,51.74
2022-10-23T15:06:55.380Z,52.71
2022-10-23T15:09:26.713Z,52.94
2022-10-23T15:11:58.022Z,52.75
2022-10-23T15:14:28.367Z,53.06
2022-10-23T15:17:02.002Z,52.90
2022-10-23T15:19:47.664Z,52.97
2022-10-23T15:22:20.849Z,53.34
2022-10-23T15:24:57.536Z,53.55
2022-10-23T15:27:27.542Z,53.48
2022-10-23T15:30:00.137Z,53.65
2022-10-23T15:32:35.378Z,54.06
2022-10-23T15:35:08.908Z,53.98
2022-10-23T15:37:37.387Z,54.44
2022-10-23T15:40:10.765Z,54.51
2022-10-23T15:42:41.318Z,54.50
2022-10-23T15:45:20.666Z,54.84
2022-10-23T15:47:52.862Z,55.03
2022-10-23T15:50:22.671Z,55.16
2022-10-23T15:52:53.693Z,55.40
2022-10-23T15:55:22.907Z,55.69
2022-10-23T15:57:53.413Z,56.02
2022-10-23T16:00:37.023Z,56.37
2022-10-23T16:03:08.282Z,56.79
2022-10-23T16:05:38.165Z,57.27
2022-10-23T16:08:08.090Z,57.20
2022-10-23T16:10:42.826Z,57.63
2022-10-23T16:13:13.852Z,57.72
2022-10-23T16:15:44.387Z,58.10
2022-10-23T16:18:16.584Z,58.58
2022-10-23T16:20:45.883Z,58.44
2022-10-23T16:23:16.291Z,58.75
2022-10-23T16:25:47.276Z,59.04
2022-10-23T16:28:16.638Z,59.36
2022-10-23T16:30:44.253Z,59.39
2022-10-23T16:33:13.702Z,60.20
2022-10-23T16:35:41.179Z,60.50
2022-10-23T16:38:08.706Z,61.01
2022-10-23T16:40:36.284Z,61.37
2022-10-23T16:43:04.036Z,61.85
2022-10-23T16:45:34.391Z,61.87
2022-10-23T16:48:04.785Z,62.20
2022-10-23T16:50:33.689Z,62.41
2022-10-23T16:53:01.235Z,62.65
2022-10-23T16:55:28.847Z,62.89
2022-10-23T16:57:57.633Z,63.29
2022-10-23T17:00:29.177Z,63.45
2022-10-23T17:02:56.689Z,63.50
2022-10-23T17:05:24.191Z,63.58
2022-10-23T17:07:53.047Z,64.00
2022-10-23T17:10:20.658Z,63.90
2022-10-23T17:12:49.907Z,64.06
2022-10-23T17:15:17.769Z,63.83
2022-10-23T17:17:45.361Z,63.99
2022-10-23T17:20:13.432Z,64.17
2022-10-23T17:22:41.027Z,64.16
2022-10-23T17:25:11.170Z,64.46
2022-10-23T17:27:38.668Z,64.52
2022-10-23T17:30:10.383Z,64.74
2022-10-23T17:32:39.966Z,64.83
2022-10-23T17:35:08.563Z,64.80
2022-10-23T17:37:36.082Z,64.82
2022-10-23T17:40:05.003Z,65.19
2022-10-23T17:42:33.972Z,65.24
2022-10-23T17:45:01.492Z,65.29
2022-10-23T17:47:28.988Z,65.61
2022-10-23T17:49:56.638Z,66.10
2022-10-23T17:52:24.179Z,66.30
2022-10-23T17:54:53.283Z,66.80
2022-10-23T17:57:20.778Z,66.73
2022-10-23T17:59:49.609Z,67.21
2022-10-23T18:02:17.248Z,67.20
2022-10-23T18:04:45.004Z,67.24
2022-10-23T18:07:13.041Z,67.28
2022-10-23T18:09:40.853Z,67.15
2022-10-23T18:12:08.574Z,67.23
2022-10-23T18:14:37.538Z,67.35
2022-10-23T18:17:06.658Z,67.44
2022-10-23T18:19:34.257Z,67.64
2022-10-23T18:22:01.785Z,67.59
2022-10-23T18:24:30.907Z,67.05
2022-10-23T18:26:58.414Z,67.75
2022-10-23T18:29:25.905Z,66.64
2022-10-23T18:31:53.372Z,66.40
2022-10-23T18:34:24.792Z,66.43
2022-10-23T18:36:54.048Z,66.02
2022-10-23T18:39:24.072Z,65.52
2022-10-23T18:41:53.822Z,65.83
2022-10-23T18:44:23.446Z,66.50
2022-10-23T18:46:51.252Z,66.79
2022-10-23T18:49:20.288Z,66.87
2022-10-23T18:51:49.962Z,66.94
2022-10-23T18:54:24.397Z,67.18
2022-10-23T18:56:51.965Z,65.91
2022-10-23T18:59:21.459Z,64.74
2022-10-23T19:01:49.770Z,64.47
2022-10-23T19:04:18.418Z,64.03
2022-10-23T19:06:46.621Z,63.91
2022-10-23T19:09:15.801Z,64.28
2022-10-23T19:11:45.195Z,63.29
2022-10-23T19:14:13.046Z,63.63
2022-10-23T19:16:45.427Z,63.32
2022-10-23T19:19:16.347Z,63.14
2022-10-23T19:21:44.576Z,63.27
2022-10-23T19:24:17.179Z,62.87
2022-10-23T19:26:45.252Z,62.30
2022-10-23T19:29:16.291Z,61.57
2022-10-23T19:31:48.829Z,62.24
2022-10-23T19:34:19.669Z,61.30
2022-10-23T19:36:47.445Z,59.54
2022-10-23T19:39:17.151Z,58.81
2022-10-23T19:41:44.976Z,58.71
2022-10-23T19:44:13.871Z,58.86
2022-10-23T19:46:41.410Z,59.00
2022-10-23T19:49:09.193Z,58.74
2022-10-23T19:51:37.139Z,59.33
2022-10-23T19:54:05.369Z,59.21
2022-10-23T19:56:34.226Z,59.72
2022-10-23T19:59:01.759Z,59.97
2022-10-23T20:01:29.439Z,60.42
2022-10-23T20:03:57.228Z,60.71
2022-10-23T20:06:26.921Z,60.16
2022-10-23T20:08:55.462Z,59.90
2022-10-23T20:11:25.463Z,59.84
2022-10-23T20:13:54.749Z,57.63
2022-10-23T20:16:24.556Z,57.50
2022-10-23T20:18:52.513Z,55.41
2022-10-23T20:21:20.839Z,54.30
2022-10-23T20:23:48.775Z,53.31
2022-10-23T20:26:18.788Z,53.24
2022-10-23T20:28:48.442Z,53.66
2022-10-23T20:31:18.230Z,53.42
2022-10-23T20:33:45.972Z,53.88
2022-10-23T20:36:23.738Z,53.03
2022-10-23T20:38:51.385Z,53.67
2022-10-23T20:41:18.983Z,53.31
2022-10-23T20:43:46.597Z,53.03
2022-10-23T20:46:14.272Z,52.77
2022-10-23T20:48:44.959Z,52.85
2022-10-23T20:51:15.204Z,53.53
2022-10-23T20:53:44.427Z,54.11
2022-10-23T20:56:15.034Z,53.90
2022-10-23T20:58:42.834Z,54.22
2022-10-23T21:01:12.717Z,54.21
2022-10-23T21:03:40.584Z,54.34
2022-10-23T21:06:12.256Z,54.24
2022-10-23T21:08:40.207Z,54.93
2022-10-23T21:11:08.919Z,54.77
2022-10-23T21:13:36.508Z,54.40
2022-10-23T21:16:13.010Z,54.30
2022-10-23T21:18:45.914Z,54.76
2022-10-23T21:21:19.168Z,54.86
2022-10-23T21:23:47.879Z,55.45
2022-10-23T21:26:20.125Z,55.67
2022-10-23T21:28:56.325Z,56.00
2022-10-23T21:31:37.068Z,57.25
2022-10-23T21:34:05.450Z,57.21
2022-10-23T21:36:43.772Z,57.43
2022-10-23T21:39:22.225Z,57.61
2022-10-23T21:41:49.798Z,58.09
2022-10-23T21:44:17.352Z,59.17
2022-10-23T21:46:45.677Z,58.69
2022-10-23T21:49:13.213Z,58.30
2022-10-23T21:51:42.121Z,58.42
2022-10-23T21:54:13.247Z,58.78
2022-10-23T21:56:44.839Z,59.36
2022-10-23T21:59:13.771Z,59.63
2022-10-23T22:01:43.017Z,60.43
2022-10-23T22:04:11.210Z,59.76
2022-10-23T22:06:39.363Z,60.04
2022-10-23T22:09:09.584Z,59.98
2022-10-23T22:11:37.149Z,60.16
2022-10-23T22:14:04.827Z,60.41
2022-10-23T22:16:32.570Z,61.13
2022-10-23T22:19:00.094Z,61.15
2022-10-23T22:21:30.389Z,61.43
2022-10-23T22:24:00.036Z,61.37
2022-10-23T22:26:30.804Z,61.70
2022-10-23T22:29:00.091Z,62.52
2022-10-23T22:31:32.092Z,61.88
2022-10-23T22:34:13.041Z,62.23
2022-10-23T22:36:51.878Z,63.20
2022-10-23T22:39:20.658Z,64.01
2022-10-23T22:41:50.672Z,63.10
2022-10-23T22:44:20.291Z,62.70
2022-10-23T22:50:15.739Z,63.03
2022-10-23T22:55:57.555Z,62.86
2022-10-23T23:06:03.379Z,63.71
2022-10-23T23:08:54.853Z,62.98
2022-10-23T23:11:31.356Z,63.57
2022-10-23T23:14:28.498Z,63.68
2022-10-23T23:17:02.845Z,64.38
2022-10-23T23:19:59.577Z,63.67
2022-10-23T23:25:25.053Z,64.46
2022-10-23T23:31:47.221Z,64.17
2022-10-23T23:34:14.926Z,64.02
2022-10-23T23:36:42.704Z,63.91
2022-10-23T23:39:11.849Z,64.13
2022-10-23T23:41:40.986Z,64.13
2022-10-23T23:44:09.227Z,64.57
2022-10-23T23:46:37.759Z,64.46
2022-10-23T23:49:07.578Z,64.75
2022-10-23T23:51:36.878Z,64.41
2022-10-23T23:54:07.994Z,64.64
2022-10-23T23:56:51.299Z,64.40
2022-10-23T23:59:22.251Z,64.66
